createdAt,value
2022-08-17T00:02:26.877Z,124.20
2022-08-17T00:04:55.805Z,131.63
2022-08-17T00:07:23.191Z,130.65
2022-08-17T00:09:49.853Z,138.73
2022-08-17T00:12:42.721Z,138.40
2022-08-17T00:15:08.302Z,140.70
2022-08-17T00:17:40.673Z,143.48
2022-08-17T00:20:08.298Z,145.90
2022-08-17T00:22:36.712Z,146.82
2022-08-17T00:25:18.364Z,145.70
2022-08-17T00:27:45.613Z,149.98
2022-08-17T00:30:13.234Z,151.77
2022-08-17T00:33:12.396Z,166.82
2022-08-17T00:35:29.751Z,160.15
2022-08-17T00:37:57.227Z,166.70
2022-08-17T00:40:24.736Z,171.75
2022-08-17T00:42:54.841Z,170.65
2022-08-17T00:45:24.185Z,171.13
2022-08-17T00:47:50.822Z,177.73
2022-08-17T00:50:19.496Z,173.45
2022-08-17T00:52:55.006Z,173.68
2022-08-17T00:55:24.211Z,181.30
2022-08-17T00:57:55.607Z,184.60
2022-08-17T01:00:27.168Z,195.98
2022-08-17T01:03:08.568Z,200.30
2022-08-17T01:05:42.173Z,198.27
2022-08-17T01:08:13.226Z,205.25
2022-08-17T01:10:58.587Z,202.48
2022-08-17T01:13:39.763Z,198.27
2022-08-17T01:16:32.028Z,196.38
2022-08-17T01:19:02.180Z,206.18
2022-08-17T01:22:13.103Z,210.27
2022-08-17T01:24:43.228Z,221.63
2022-08-17T01:27:10.947Z,220.77
2022-08-17T01:29:42.065Z,216.52
2022-08-17T01:32:09.494Z,227.27
2022-08-17T01:34:42.909Z,213.65
2022-08-17T01:37:13.571Z,219.25
2022-08-17T01:39:54.010Z,221.10
2022-08-17T01:42:39.606Z,214.68
2022-08-17T01:45:18.479Z,221.73
2022-08-17T01:47:46.852Z,224.80
2022-08-17T01:50:18.265Z,226.70
2022-08-17T01:52:46.348Z,222.25
2022-08-17T01:55:19.132Z,222.50
2022-08-17T01:57:46.220Z,226.38
2022-08-17T02:00:14.260Z,221.48
2022-08-17T02:02:41.433Z,225.57
2022-08-17T02:05:08.645Z,222.77
2022-08-17T02:07:59.919Z,232.48
2022-08-17T02:10:24.337Z,224.60
2022-08-17T02:13:01.633Z,220.95
2022-08-17T02:15:28.727Z,228.82
2022-08-17T02:17:55.373Z,222.73
2022-08-17T02:20:41.863Z,234.73
2022-08-17T02:23:11.934Z,227.45
2022-08-17T02:25:43.475Z,222.73
2022-08-17T02:28:10.937Z,222.82
2022-08-17T02:31:00.691Z,223.30
2022-08-17T02:33:24.945Z,223.45
2022-08-17T02:36:11.944Z,230.43
2022-08-17T02:38:39.994Z,226.00
2022-08-17T02:41:06.840Z,229.55
2022-08-17T02:43:33.623Z,220.98
2022-08-17T02:46:00.733Z,227.40
2022-08-17T02:48:28.015Z,229.15
2022-08-17T02:50:58.193Z,227.35
2022-08-17T02:53:25.582Z,226.88
2022-08-17T02:55:53.167Z,232.07
2022-08-17T02:58:34.454Z,230.70
2022-08-17T03:01:05.472Z,223.50
2022-08-17T03:03:32.528Z,218.90
2022-08-17T03:05:59.171Z,220.98
2022-08-17T03:08:25.960Z,221.80
2022-08-17T03:10:53.252Z,218.02
2022-08-17T03:13:20.175Z,230.07
2022-08-17T03:15:48.525Z,219.68
2022-08-17T03:18:24.628Z,215.23
2022-08-17T03:20:54.834Z,220.70
2022-08-17T03:23:24.299Z,219.48
2022-08-17T03:25:53.797Z,212.68
2022-08-17T03:28:21.859Z,223.23
2022-08-17T03:30:49.117Z,221.48
2022-08-17T03:33:17.728Z,216.65
2022-08-17T03:35:44.459Z,213.13
2022-08-17T03:38:12.701Z,210.95
2022-08-17T03:40:56.820Z,207.15
2022-08-17T14:32:42.896Z,54.35
2022-08-17T14:35:12.798Z,51.88
2022-08-17T14:37:39.631Z,53.25
2022-08-17T14:40:09.270Z,53.10
2022-08-17T14:42:38.236Z,52.22
2022-08-17T14:45:29.839Z,57.25
2022-08-17T14:47:55.281Z,73.82
2022-08-17T14:50:22.559Z,63.28
2022-08-17T14:52:50.648Z,59.38
2022-08-17T14:55:23.689Z,65.03
2022-08-17T14:57:50.414Z,60.92
2022-08-17T15:00:17.534Z,70.22
2022-08-17T15:02:56.705Z,65.53
2022-08-17T15:05:26.604Z,75.45
2022-08-17T15:07:53.736Z,90.38
2022-08-17T15:10:21.927Z,79.13
2022-08-17T15:12:49.100Z,76.32
2022-08-17T15:15:17.351Z,82.55
2022-08-17T15:17:46.270Z,82.03
2022-08-17T15:20:16.484Z,76.10
2022-08-17T15:22:44.852Z,80.22
2022-08-17T15:25:12.315Z,94.50
2022-08-17T15:27:40.454Z,85.35
2022-08-17T15:30:09.947Z,181.27
2022-08-17T15:32:40.673Z,92.68
2022-08-17T15:35:11.817Z,86.70
2022-08-17T15:37:40.233Z,88.25
2022-08-17T15:40:09.458Z,85.88
2022-08-17T15:42:36.525Z,87.82
2022-08-17T15:45:11.021Z,87.03
2022-08-17T15:47:38.616Z,87.25
2022-08-17T15:50:07.884Z,88.82
2022-08-17T15:52:41.052Z,98.30
2022-08-17T15:55:12.135Z,84.82
2022-08-17T15:58:22.368Z,92.97
2022-08-17T16:01:18.338Z,87.03
2022-08-17T16:04:03.954Z,82.70
2022-08-17T16:06:31.955Z,92.63
2022-08-17T16:09:00.093Z,90.85
2022-08-17T16:11:27.121Z,90.05
2022-08-17T16:13:54.704Z,92.50
2022-08-17T16:16:25.396Z,211.15
2022-08-17T16:18:53.698Z,243.57
2022-08-17T16:21:26.802Z,179.23
2022-08-17T16:24:01.908Z,133.50
2022-08-17T16:26:31.195Z,117.03
2022-08-17T16:29:00.449Z,114.88
2022-08-17T16:31:27.748Z,112.07
2022-08-17T16:34:03.873Z,153.15
2022-08-17T16:36:53.568Z,125.10
2022-08-17T16:39:26.358Z,144.50
2022-08-17T16:41:53.069Z,141.57
2022-08-17T16:44:21.853Z,142.05
2022-08-17T16:46:50.546Z,126.50
2022-08-17T16:49:31.559Z,122.03
2022-08-17T16:52:07.717Z,130.82
2022-08-17T16:54:35.594Z,110.65
2022-08-17T16:57:05.149Z,110.57
2022-08-17T16:59:39.603Z,108.57
2022-08-17T17:02:12.224Z,99.10
2022-08-17T17:05:04.830Z,103.03
2022-08-17T17:07:49.762Z,100.00
2022-08-17T17:10:24.022Z,106.37
2022-08-17T17:13:03.535Z,102.97
2022-08-17T17:15:45.338Z,101.55
2022-08-17T17:18:15.332Z,108.88
2022-08-17T17:20:55.986Z,144.15
2022-08-17T17:23:55.683Z,173.95
2022-08-17T17:27:00.301Z,119.18
2022-08-17T17:29:59.973Z,140.77
2022-08-17T17:32:39.260Z,158.27
2022-08-17T17:35:31.869Z,133.10
2022-08-17T17:38:05.117Z,113.63
2022-08-17T17:40:45.081Z,124.70
2022-08-17T17:43:37.558Z,117.32
2022-08-17T17:46:28.033Z,109.30
2022-08-17T17:48:58.981Z,108.82
2022-08-17T17:52:07.850Z,115.43
2022-08-17T17:55:13.302Z,139.02
2022-08-17T17:57:44.239Z,126.78
2022-08-17T18:00:46.560Z,115.20
2022-08-17T18:03:32.325Z,109.88
2022-08-17T18:06:21.874Z,112.53
2022-08-17T18:08:52.072Z,119.80
2022-08-17T18:11:25.109Z,112.70
2022-08-17T18:14:20.584Z,122.53
2022-08-17T18:16:53.313Z,105.75
2022-08-17T18:19:20.758Z,146.55
2022-08-17T18:22:03.861Z,116.40
2022-08-17T18:24:37.881Z,108.45
2022-08-17T18:27:21.218Z,122.35
2022-08-17T18:29:49.785Z,120.57
2022-08-17T18:32:26.669Z,113.55
2022-08-17T18:35:11.216Z,110.78
2022-08-17T18:37:47.751Z,114.68
2022-08-17T18:40:17.244Z,104.00
2022-08-17T18:43:01.451Z,146.05
2022-08-17T18:45:34.035Z,125.28
2022-08-17T18:48:01.532Z,117.10
2022-08-17T18:50:37.916Z,102.57
2022-08-17T18:53:30.214Z,105.00
2022-08-17T18:56:38.470Z,97.63
2022-08-17T18:59:21.631Z,110.95
2022-08-17T19:02:23.154Z,100.82
2022-08-17T19:05:06.274Z,108.38
2022-08-17T19:07:40.419Z,182.13
2022-08-17T19:10:18.198Z,141.13
2022-08-17T19:13:23.965Z,116.95
2022-08-17T19:16:20.433Z,91.95
2022-08-17T19:18:53.129Z,90.18
2022-08-17T19:21:47.664Z,86.10
2022-08-17T19:24:20.304Z,80.28
2022-08-17T19:26:56.602Z,91.60
2022-08-17T19:29:45.895Z,88.00
2022-08-17T19:32:17.312Z,80.03
2022-08-17T19:34:44.789Z,81.03
2022-08-17T19:37:52.670Z,78.30
2022-08-17T19:40:54.599Z,84.60
2022-08-17T19:43:40.794Z,76.95
2022-08-17T19:46:26.173Z,75.82
2022-08-17T19:49:07.351Z,75.30
2022-08-17T19:51:45.514Z,68.40
2022-08-17T19:54:27.209Z,75.28
2022-08-17T19:57:07.539Z,72.03
2022-08-17T19:59:49.052Z,62.53
2022-08-17T20:02:33.591Z,66.63
2022-08-17T20:05:07.264Z,62.42
2022-08-17T20:07:58.716Z,58.78
2022-08-17T20:10:48.073Z,59.08
2022-08-17T20:13:33.551Z,53.15
2022-08-17T20:16:01.252Z,56.42
2022-08-17T20:18:38.374Z,56.72
2022-08-17T20:21:19.917Z,67.82
2022-08-17T20:24:05.842Z,73.22
2022-08-17T20:26:55.190Z,60.40
2022-08-17T20:29:40.396Z,55.47
2022-08-17T20:32:23.609Z,60.78
2022-08-17T20:35:05.036Z,56.78
2022-08-17T20:37:35.442Z,57.05
2022-08-17T20:40:05.847Z,53.15
2022-08-17T20:42:33.967Z,57.15
2022-08-17T20:45:26.621Z,63.83
2022-08-17T20:48:36.111Z,53.75
2022-08-17T20:50:59.191Z,59.40
2022-08-17T20:53:47.310Z,55.28
2022-08-17T20:56:51.637Z,55.25
2022-08-17T20:59:21.287Z,89.03
2022-08-17T21:02:12.446Z,63.38
2022-08-17T21:04:52.889Z,67.05
2022-08-17T21:07:54.475Z,61.95
2022-08-17T21:10:24.152Z,54.10
2022-08-17T21:12:50.714Z,54.20
2022-08-17T21:15:50.207Z,53.50
2022-08-17T21:18:38.643Z,58.28
2022-08-17T21:21:46.514Z,54.17
2022-08-17T21:24:35.171Z,52.25
2022-08-17T21:27:10.907Z,50.08
2022-08-17T21:32:30.180Z,49.38
2022-08-17T21:35:06.870Z,57.88
2022-08-17T21:40:10.359Z,53.92
2022-08-17T21:42:48.576Z,51.80
2022-08-17T21:45:20.985Z,53.75
2022-08-17T21:47:52.810Z,57.03
2022-08-17T21:50:25.110Z,58.30
2022-08-17T21:52:56.805Z,60.30
2022-08-17T21:55:28.629Z,62.80
2022-08-17T21:58:13.884Z,69.55
2022-08-17T22:00:44.179Z,70.68
2022-08-17T22:03:24.737Z,74.47
2022-08-17T22:05:51.730Z,84.80
2022-08-17T22:08:25.792Z,92.10
2022-08-17T22:11:01.266Z,116.15
2022-08-17T22:13:29.688Z,109.93
2022-08-17T22:16:28.876Z,122.47
2022-08-17T22:18:58.247Z,131.52
2022-08-17T22:21:25.766Z,137.00
2022-08-17T22:24:21.694Z,132.90
2022-08-17T22:27:07.706Z,141.15
2022-08-17T22:30:00.429Z,144.73
2022-08-17T22:32:48.353Z,142.48
2022-08-17T22:35:35.396Z,150.10
2022-08-17T22:38:20.248Z,152.45
2022-08-17T22:41:07.943Z,153.80
2022-08-17T22:43:38.691Z,162.00
2022-08-17T22:46:12.627Z,178.65
2022-08-17T22:48:48.642Z,165.20
2022-08-17T22:51:20.968Z,172.43
2022-08-17T22:54:10.321Z,174.68
2022-08-17T22:56:56.599Z,175.48
2022-08-17T22:59:46.295Z,184.65
2022-08-17T23:02:14.961Z,180.55
2022-08-17T23:04:47.733Z,176.05
2022-08-17T23:07:15.895Z,181.98
2022-08-17T23:09:42.793Z,184.15
2022-08-17T23:12:13.666Z,178.45
2022-08-17T23:14:42.531Z,176.80
2022-08-17T23:17:09.201Z,180.00
2022-08-17T23:19:36.008Z,183.68
2022-08-17T23:22:06.895Z,176.50
2022-08-17T23:24:39.299Z,187.20
2022-08-17T23:27:07.654Z,190.23
2022-08-17T23:29:35.130Z,183.88
2022-08-17T23:32:04.799Z,181.48
2022-08-17T23:34:31.570Z,187.00
2022-08-17T23:36:58.225Z,181.10
2022-08-17T23:39:28.199Z,194.25
2022-08-17T23:42:01.054Z,182.45
2022-08-17T23:44:28.979Z,187.10
2022-08-17T23:46:56.803Z,181.52
2022-08-17T23:49:25.290Z,186.20
2022-08-17T23:51:54.826Z,186.38
2022-08-17T23:54:29.980Z,178.40
2022-08-17T23:56:56.711Z,184.25
2022-08-17T23:59:23.621Z,176.52
